createdAt,value
2017-09-27T00:00:00.328Z,39.55
2017-09-27T00:02:34.980Z,39.05
2017-09-27T00:05:09.447Z,41.45
2017-09-27T00:07:43.892Z,39.17
2017-09-27T00:10:18.376Z,39.60
2017-09-27T00:12:52.897Z,38.20
2017-09-27T00:15:27.432Z,39.92
2017-09-27T00:18:02.601Z,38.65
2017-09-27T00:20:36.971Z,39.75
2017-09-27T00:23:12.147Z,39.20
2017-09-27T00:25:46.503Z,39.22
2017-09-27T00:28:21.105Z,38.90
2017-09-27T00:30:55.658Z,37.15
2017-09-27T00:33:30.079Z,39.45
2017-09-27T00:36:04.670Z,38.60
2017-09-27T00:38:39.288Z,40.42
2017-09-27T00:41:13.779Z,39.28
2017-09-27T00:43:48.433Z,38.38
2017-09-27T00:46:22.947Z,36.55
2017-09-27T00:48:58.066Z,39.53
2017-09-27T00:51:32.571Z,39.42
2017-09-27T00:54:07.135Z,39.47
2017-09-27T00:56:41.716Z,38.83
2017-09-27T00:59:16.347Z,39.75
2017-09-27T01:01:50.747Z,36.83
2017-09-27T02:37:24.497Z,33.25
2017-09-27T02:39:58.872Z,34.55
2017-09-27T02:42:33.523Z,33.92
2017-09-27T02:45:08.000Z,32.10
2017-09-27T02:47:42.377Z,35.20
2017-09-27T02:50:16.674Z,34.45
2017-09-27T02:52:51.084Z,33.72
2017-09-27T02:55:25.623Z,37.50
2017-09-27T02:58:00.115Z,34.50
2017-09-27T03:00:34.628Z,36.72
2017-09-27T03:03:09.963Z,36.17
2017-09-27T03:05:44.471Z,37.67
2017-09-27T03:08:19.169Z,34.63
2017-09-27T03:10:53.459Z,36.83
2017-09-27T03:13:28.889Z,34.30
2017-09-27T03:16:03.379Z,37.85
2017-09-27T03:18:38.449Z,32.72
2017-09-27T03:21:13.716Z,36.67
2017-09-27T03:23:48.424Z,35.70
2017-09-27T03:26:22.887Z,36.28
2017-09-27T03:28:57.307Z,36.00
2017-09-27T03:31:31.760Z,36.40
2017-09-27T03:34:06.305Z,35.33
2017-09-27T03:36:40.728Z,37.42
2017-09-27T03:39:15.097Z,35.55
2017-09-27T03:41:49.769Z,37.05
2017-09-27T03:44:24.135Z,39.78
2017-09-27T03:46:58.526Z,37.05
2017-09-27T03:49:32.895Z,37.00
2017-09-27T03:52:08.050Z,36.88
2017-09-27T03:54:42.706Z,36.30
2017-09-27T03:57:17.156Z,36.38
2017-09-27T03:59:51.629Z,36.75
2017-09-27T04:02:26.128Z,38.05
2017-09-27T04:05:00.706Z,38.70
2017-09-27T04:07:35.180Z,37.05
2017-09-27T04:10:09.582Z,37.22
2017-09-27T04:12:44.016Z,37.70
2017-09-27T04:15:18.671Z,36.53
2017-09-27T04:17:53.147Z,39.85
2017-09-27T04:20:28.479Z,36.72
2017-09-27T04:23:02.915Z,39.05
2017-09-27T04:25:38.916Z,37.65
2017-09-27T04:28:16.584Z,37.42
2017-09-27T04:30:51.941Z,36.95
2017-09-27T04:33:26.425Z,37.10
2017-09-27T04:36:00.889Z,36.38
2017-09-27T04:38:35.247Z,36.45
2017-09-27T04:41:10.480Z,39.35
2017-09-27T04:43:45.019Z,39.10
2017-09-27T04:46:19.594Z,38.80
2017-09-27T04:48:54.113Z,37.92
2017-09-27T04:51:28.716Z,39.15
2017-09-27T04:54:03.218Z,39.30
2017-09-27T04:56:37.594Z,36.83
2017-09-27T04:59:12.822Z,37.95
2017-09-27T05:01:47.329Z,38.65
2017-09-27T05:04:21.897Z,37.13
2017-09-27T05:06:56.502Z,38.03
2017-09-27T05:09:31.071Z,38.85
2017-09-27T05:12:05.521Z,39.65
2017-09-27T05:14:39.961Z,38.83
2017-09-27T05:17:14.448Z,40.00
2017-09-27T05:19:48.949Z,37.83
2017-09-27T05:22:23.376Z,36.85
2017-09-27T05:24:58.583Z,41.25
2017-09-27T05:27:32.916Z,38.97
2017-09-27T05:30:07.332Z,36.63
2017-09-27T05:32:41.652Z,37.58
2017-09-27T05:35:16.099Z,38.05
2017-09-27T05:37:50.532Z,39.38
2017-09-27T05:40:25.055Z,38.35
2017-09-27T05:42:59.548Z,39.28
2017-09-27T05:45:34.282Z,40.95
2017-09-27T05:48:08.779Z,37.25
2017-09-27T05:50:43.565Z,43.83
2017-09-27T05:53:17.979Z,40.47
2017-09-27T05:55:52.364Z,41.00
2017-09-27T05:58:26.735Z,41.50
2017-09-27T06:01:01.086Z,36.53
2017-09-27T06:03:35.512Z,39.67
2017-09-27T06:06:09.900Z,40.22
2017-09-27T06:08:44.378Z,41.25
2017-09-27T06:11:18.843Z,43.05
2017-09-27T06:13:53.214Z,42.35
2017-09-27T06:16:27.683Z,42.35
2017-09-27T06:19:02.217Z,36.22
2017-09-27T06:21:36.632Z,42.65
2017-09-27T06:24:11.097Z,44.08
2017-09-27T06:26:45.529Z,42.35
2017-09-27T06:29:20.676Z,40.00
2017-09-27T06:31:55.167Z,41.20
2017-09-27T06:34:30.419Z,39.60
2017-09-27T06:37:04.932Z,37.25
2017-09-27T06:39:39.513Z,38.83
2017-09-27T06:42:13.971Z,42.33
2017-09-27T06:44:48.381Z,40.90
2017-09-27T06:47:23.059Z,37.10
2017-09-27T06:49:58.348Z,39.30
2017-09-27T06:52:32.783Z,40.83
2017-09-27T06:55:07.375Z,40.28
2017-09-27T06:57:42.510Z,40.03
2017-09-27T07:00:17.796Z,39.60
2017-09-27T07:02:52.145Z,41.70
2017-09-27T07:05:26.594Z,42.03
2017-09-27T07:08:01.123Z,37.60
2017-09-27T07:10:35.986Z,71.15
2017-09-27T07:13:10.571Z,41.50
2017-09-27T07:15:44.926Z,38.33
2017-09-27T07:18:19.406Z,37.85
2017-09-27T07:20:53.799Z,36.47
2017-09-27T07:23:28.151Z,35.85
2017-09-27T07:26:03.329Z,36.03
2017-09-27T07:28:37.793Z,34.50
2017-09-27T07:31:12.508Z,36.55
2017-09-27T07:33:47.044Z,35.13
2017-09-27T07:36:21.434Z,35.60
2017-09-27T07:38:56.105Z,34.22
2017-09-27T07:41:30.494Z,34.88
2017-09-27T07:44:04.879Z,35.53
2017-09-27T07:46:39.432Z,34.95
2017-09-27T07:49:14.775Z,34.13
2017-09-27T07:51:49.255Z,35.67
2017-09-27T07:54:23.764Z,35.20
2017-09-27T07:56:58.963Z,36.10
2017-09-27T07:59:33.415Z,34.88
2017-09-27T08:02:07.935Z,33.97
2017-09-27T08:04:42.309Z,34.85
2017-09-27T08:07:16.776Z,34.40
2017-09-27T08:09:51.204Z,33.58
2017-09-27T08:12:26.107Z,33.55
2017-09-27T08:15:00.436Z,35.17
2017-09-27T08:17:34.851Z,34.67
2017-09-27T08:20:09.236Z,35.53
2017-09-27T08:22:44.516Z,34.90
2017-09-27T08:25:19.043Z,31.25
2017-09-27T08:27:53.506Z,31.50
2017-09-27T08:30:27.880Z,34.47
2017-09-27T08:33:02.363Z,32.38
2017-09-27T08:35:37.757Z,34.10
2017-09-27T08:38:13.043Z,32.70
2017-09-27T08:40:47.411Z,33.72
2017-09-27T08:43:23.742Z,34.88
2017-09-27T08:45:58.539Z,34.25
2017-09-27T08:48:32.875Z,31.42
2017-09-27T08:51:07.656Z,36.75
2017-09-27T08:53:42.288Z,32.80
2017-09-27T08:56:16.679Z,31.20
2017-09-27T08:58:51.884Z,34.13
2017-09-27T09:01:26.260Z,33.13
2017-09-27T09:04:00.880Z,35.53
2017-09-27T09:06:35.308Z,39.35
2017-09-27T09:09:10.472Z,34.10
2017-09-27T09:11:45.988Z,33.25
2017-09-27T09:14:20.440Z,36.95
2017-09-27T09:16:54.770Z,35.38
2017-09-27T09:19:29.884Z,34.90
2017-09-27T09:22:04.265Z,36.70
2017-09-27T09:24:38.663Z,38.83
2017-09-27T09:27:13.044Z,36.97
2017-09-27T09:29:48.222Z,35.80
2017-09-27T09:32:23.426Z,38.15
2017-09-27T09:34:57.953Z,38.15
2017-09-27T09:37:32.415Z,37.03
2017-09-27T09:40:06.865Z,36.70
2017-09-27T09:42:41.375Z,36.92
2017-09-27T09:45:15.764Z,34.92
2017-09-27T09:47:50.268Z,37.53
2017-09-27T09:50:24.599Z,36.70
2017-09-27T09:52:59.152Z,33.65
2017-09-27T09:55:33.849Z,32.25
2017-09-27T09:58:08.248Z,33.60
2017-09-27T10:00:42.826Z,31.65
2017-09-27T10:03:17.185Z,36.38
2017-09-27T10:05:51.659Z,31.77
2017-09-27T10:08:26.149Z,33.83
2017-09-27T10:11:00.596Z,29.37
2017-09-27T10:13:35.064Z,32.00
2017-09-27T10:16:09.644Z,30.47
2017-09-27T10:18:44.168Z,28.97
2017-09-27T10:21:18.752Z,28.20
2017-09-27T10:23:53.176Z,30.23
2017-09-27T10:26:27.800Z,27.33
2017-09-27T10:29:02.357Z,30.07
2017-09-27T10:31:36.736Z,29.90
2017-09-27T10:34:11.239Z,30.97
2017-09-27T10:36:45.575Z,31.20
2017-09-27T10:39:20.127Z,27.10
2017-09-27T10:41:55.375Z,27.27
2017-09-27T10:44:29.934Z,26.60
2017-09-27T10:47:05.167Z,26.23
2017-09-27T10:49:39.924Z,25.83
2017-09-27T10:52:14.440Z,28.30
2017-09-27T10:54:49.176Z,27.03
2017-09-27T10:57:23.717Z,27.80
2017-09-27T10:59:58.147Z,25.07
2017-09-27T11:02:32.642Z,26.80
2017-09-27T11:05:07.461Z,25.63
2017-09-27T11:07:41.837Z,27.37
2017-09-27T11:10:16.178Z,28.37
2017-09-27T11:12:50.737Z,26.07
2017-09-27T11:15:25.192Z,26.70
2017-09-27T11:17:59.624Z,27.80
2017-09-27T11:20:34.019Z,25.00
2017-09-27T11:23:08.597Z,28.60
2017-09-27T11:25:43.130Z,27.50
2017-09-27T11:28:17.600Z,28.93
2017-09-27T11:30:52.095Z,28.70
2017-09-27T11:33:26.437Z,27.00
2017-09-27T11:36:01.025Z,28.53
2017-09-27T11:38:35.407Z,31.60
2017-09-27T11:41:10.060Z,31.25
2017-09-27T11:43:44.543Z,30.47
2017-09-27T11:46:18.975Z,28.60
2017-09-27T11:48:53.431Z,31.40
2017-09-27T11:51:27.955Z,29.37
2017-09-27T11:54:02.414Z,30.15
2017-09-27T11:56:36.973Z,32.00
2017-09-27T11:59:12.109Z,33.33
2017-09-27T12:01:46.496Z,31.57
2017-09-27T12:04:20.938Z,34.60
2017-09-27T12:06:55.441Z,36.97
2017-09-27T12:09:30.637Z,36.70
2017-09-27T12:12:05.926Z,38.17
2017-09-27T12:14:40.260Z,36.42
2017-09-27T12:17:15.115Z,37.88
2017-09-27T12:19:50.523Z,38.67
2017-09-27T12:22:24.985Z,40.22
2017-09-27T12:24:59.408Z,40.58
2017-09-27T12:27:33.800Z,41.17
2017-09-27T12:30:08.139Z,43.22
2017-09-27T12:32:42.699Z,45.78
2017-09-27T12:35:17.160Z,44.00
2017-09-27T12:37:51.577Z,44.45
2017-09-27T12:40:26.100Z,46.90
2017-09-27T12:43:00.471Z,47.95
2017-09-27T12:45:35.049Z,44.85
2017-09-27T12:48:09.523Z,45.70
2017-09-27T12:50:44.733Z,47.28
2017-09-27T12:53:19.234Z,45.92
2017-09-27T12:55:54.487Z,42.90
2017-09-27T12:58:30.357Z,43.10
2017-09-27T13:01:04.737Z,43.28
2017-09-27T13:03:40.129Z,43.33
2017-09-27T13:06:14.611Z,43.05
2017-09-27T13:08:49.081Z,47.17
2017-09-27T13:11:24.259Z,44.70
2017-09-27T13:13:58.752Z,45.70
2017-09-27T13:16:33.147Z,48.33
2017-09-27T13:19:07.737Z,44.47
2017-09-27T13:21:42.180Z,46.92
2017-09-27T13:24:16.586Z,48.60
2017-09-27T13:26:51.086Z,43.22
2017-09-27T13:29:25.532Z,44.50
2017-09-27T13:32:00.093Z,44.22
2017-09-27T13:34:34.496Z,46.30
2017-09-27T13:37:08.955Z,48.05
2017-09-27T13:39:43.379Z,46.47
2017-09-27T13:42:17.684Z,46.67
2017-09-27T13:44:52.244Z,46.53
2017-09-27T13:47:26.737Z,48.87
2017-09-27T13:50:01.246Z,46.88
2017-09-27T13:52:35.672Z,45.30
2017-09-27T13:55:10.865Z,44.10
2017-09-27T13:57:46.318Z,46.15
2017-09-27T14:00:20.724Z,45.60
2017-09-27T14:02:55.192Z,46.47
2017-09-27T14:05:32.841Z,46.85
2017-09-27T14:08:07.368Z,46.70
2017-09-27T14:10:41.736Z,48.33
2017-09-27T14:13:16.947Z,45.40
2017-09-27T14:15:51.830Z,43.15
2017-09-27T14:18:26.519Z,43.70
2017-09-27T14:21:00.999Z,46.22
2017-09-27T14:23:35.483Z,47.40
2017-09-27T14:26:10.968Z,46.70
2017-09-27T14:28:45.339Z,47.70
2017-09-27T14:31:19.882Z,48.40
2017-09-27T14:33:54.270Z,47.08
2017-09-27T14:36:28.767Z,47.40
2017-09-27T14:39:03.643Z,46.05
2017-09-27T14:41:38.052Z,46.80
2017-09-27T14:44:12.571Z,45.92
2017-09-27T14:46:47.805Z,43.92
2017-09-27T14:49:22.265Z,42.65
2017-09-27T14:51:56.757Z,44.78
2017-09-27T14:54:32.109Z,42.08
2017-09-27T14:57:07.360Z,44.55
2017-09-27T14:59:43.870Z,45.85
2017-09-27T15:02:18.640Z,41.92
2017-09-27T15:04:53.205Z,39.38
2017-09-27T15:07:29.772Z,43.78
2017-09-27T15:10:05.089Z,42.10
2017-09-27T15:12:41.213Z,42.13
2017-09-27T15:15:15.575Z,43.17
2017-09-27T15:18:00.013Z,42.75
2017-09-27T15:20:36.471Z,41.67
2017-09-27T15:25:56.303Z,41.10
2017-09-27T15:28:30.724Z,40.45
2017-09-27T15:31:05.587Z,40.80
2017-09-27T15:33:39.984Z,41.17
2017-09-27T15:36:15.395Z,40.80
2017-09-27T15:38:49.752Z,41.85
2017-09-27T15:41:24.641Z,42.28
2017-09-27T15:43:59.877Z,38.03
2017-09-27T15:46:35.115Z,38.33
2017-09-27T15:49:10.484Z,40.17
2017-09-27T15:51:44.847Z,36.05
2017-09-27T15:54:19.554Z,36.90
2017-09-27T15:56:53.872Z,36.85
2017-09-27T15:59:28.548Z,36.10
2017-09-27T16:02:02.966Z,36.08
2017-09-27T16:04:37.464Z,35.72
2017-09-27T16:07:11.880Z,35.63
2017-09-27T16:09:46.259Z,35.30
2017-09-27T16:12:20.602Z,34.75
2017-09-27T16:14:55.840Z,31.50
2017-09-27T16:17:30.471Z,32.38
2017-09-27T16:20:04.956Z,31.70
2017-09-27T16:22:39.445Z,31.70
2017-09-27T16:25:14.031Z,31.08
2017-09-27T16:27:49.348Z,29.92
2017-09-27T16:30:23.895Z,31.33
2017-09-27T16:32:58.994Z,30.58
2017-09-27T16:35:33.663Z,32.15
2017-09-27T16:38:08.204Z,30.00
2017-09-27T16:40:42.642Z,30.65
2017-09-27T16:43:17.099Z,31.83
2017-09-27T16:45:51.532Z,33.90
2017-09-27T16:48:26.703Z,34.05
2017-09-27T16:51:00.993Z,32.67
2017-09-27T16:53:35.384Z,31.40
2017-09-27T16:56:10.624Z,32.47
2017-09-27T16:58:45.086Z,31.33
2017-09-27T17:01:20.319Z,30.60
2017-09-27T17:03:54.637Z,31.42
2017-09-27T17:06:29.197Z,29.45
2017-09-27T17:09:03.670Z,29.52
2017-09-27T17:11:38.084Z,31.98
2017-09-27T17:14:13.332Z,29.80
2017-09-27T17:16:47.897Z,29.50
2017-09-27T17:19:22.361Z,31.73
2017-09-27T17:21:56.700Z,30.40
2017-09-27T17:24:31.005Z,29.12
2017-09-27T17:27:05.385Z,27.73
2017-09-27T17:29:39.933Z,30.98
2017-09-27T17:32:14.476Z,29.20
2017-09-27T17:34:49.000Z,31.55
2017-09-27T17:37:23.397Z,30.65
2017-09-27T17:39:57.910Z,29.23
2017-09-27T17:42:32.319Z,32.47
2017-09-27T17:45:06.829Z,30.17
2017-09-27T17:47:41.410Z,31.25
2017-09-27T17:50:15.908Z,29.90
2017-09-27T17:52:50.480Z,33.03
2017-09-27T17:55:25.006Z,31.58
2017-09-27T17:57:59.596Z,31.62
2017-09-27T18:00:33.976Z,32.22
2017-09-27T18:03:08.423Z,31.33
2017-09-27T18:08:50.347Z,29.45
2017-09-27T18:11:31.215Z,31.02
2017-09-27T18:14:11.813Z,32.80
2017-09-27T18:19:52.090Z,31.23
2017-09-27T18:22:26.523Z,31.58
2017-09-27T18:25:01.102Z,45.00
2017-09-27T18:27:35.819Z,29.98
2017-09-27T18:30:10.337Z,29.02
2017-09-27T18:32:45.527Z,31.00
2017-09-27T18:35:20.062Z,30.37
2017-09-27T18:37:54.800Z,30.27
2017-09-27T18:40:30.061Z,29.65
2017-09-27T18:43:04.756Z,32.28
2017-09-27T18:45:41.224Z,30.80
2017-09-27T18:48:16.179Z,32.83
2017-09-27T18:50:51.279Z,31.50
2017-09-27T18:53:27.299Z,29.17
2017-09-27T18:56:02.251Z,31.58
2017-09-27T18:58:37.433Z,31.45
2017-09-27T19:01:12.389Z,30.27
2017-09-27T19:03:47.194Z,33.45
2017-09-27T19:06:21.997Z,31.42
2017-09-27T19:08:56.857Z,32.22
2017-09-27T19:11:31.928Z,31.23
2017-09-27T19:14:06.485Z,31.60
2017-09-27T19:16:40.873Z,31.23
2017-09-27T19:19:15.717Z,31.00
2017-09-27T19:21:50.367Z,29.58
2017-09-27T19:24:24.966Z,28.67
2017-09-27T19:26:59.824Z,30.70
2017-09-27T19:29:34.698Z,31.50
2017-09-27T19:32:10.652Z,27.13
2017-09-27T19:34:51.091Z,29.23
2017-09-27T19:37:25.871Z,27.73
2017-09-27T19:40:00.440Z,27.27
2017-09-27T19:42:36.466Z,27.02
2017-09-27T19:45:12.437Z,27.23
2017-09-27T19:47:47.685Z,28.15
2017-09-27T19:50:22.974Z,27.80
2017-09-27T19:52:57.569Z,27.35
2017-09-27T19:55:32.022Z,26.98
2017-09-27T19:58:06.574Z,26.10
2017-09-27T20:00:42.488Z,25.52
2017-09-27T20:03:19.569Z,25.88
2017-09-27T20:05:57.050Z,26.20
2017-09-27T20:08:32.170Z,27.10
2017-09-27T20:11:07.612Z,26.05
2017-09-27T20:13:42.140Z,25.12
2017-09-27T20:16:18.895Z,24.45
2017-09-27T20:18:55.521Z,26.67
2017-09-27T20:21:30.154Z,25.40
2017-09-27T20:24:04.996Z,25.23
2017-09-27T20:26:39.456Z,23.67
2017-09-27T20:29:13.883Z,26.30
2017-09-27T20:31:48.380Z,26.48
2017-09-27T20:34:22.866Z,26.40
2017-09-27T20:36:59.049Z,25.85
2017-09-27T20:39:35.464Z,24.00
2017-09-27T20:42:10.960Z,25.90
2017-09-27T20:44:45.632Z,24.90
2017-09-27T20:47:20.045Z,23.67
2017-09-27T20:49:54.428Z,23.70
2017-09-27T20:52:29.017Z,24.67
2017-09-27T20:55:03.342Z,23.80
2017-09-27T20:57:37.691Z,25.55
2017-09-27T21:00:16.135Z,25.00
2017-09-27T21:02:50.668Z,22.55
2017-09-27T21:05:25.181Z,22.98
2017-09-27T21:08:00.975Z,22.13
2017-09-27T21:10:36.213Z,24.52
2017-09-27T21:13:11.095Z,22.02
2017-09-27T21:15:45.463Z,23.12
2017-09-27T21:18:21.138Z,22.73
2017-09-27T21:20:56.384Z,21.65
2017-09-27T21:23:31.237Z,22.40
2017-09-27T21:26:05.713Z,21.77
2017-09-27T21:28:40.979Z,20.77
2017-09-27T21:31:15.351Z,21.73
2017-09-27T21:33:50.020Z,23.08
2017-09-27T21:36:24.551Z,21.52
2017-09-27T21:38:58.928Z,20.50
2017-09-27T21:41:33.392Z,21.87
2017-09-27T21:44:07.885Z,21.77
2017-09-27T21:46:42.308Z,22.20
2017-09-27T21:49:16.697Z,21.50
2017-09-27T21:51:51.107Z,20.62
2017-09-27T21:54:25.462Z,21.80
2017-09-27T21:56:59.878Z,19.95
2017-09-27T21:59:34.277Z,20.65
2017-09-27T22:02:09.648Z,23.30
2017-09-27T22:04:44.040Z,21.87
2017-09-27T22:07:18.491Z,22.40
2017-09-27T22:09:53.066Z,21.67
2017-09-27T22:12:27.731Z,21.70
2017-09-27T22:15:02.996Z,21.55
2017-09-27T22:17:37.557Z,22.62
2017-09-27T22:20:11.943Z,21.42
2017-09-27T22:22:46.459Z,21.10
2017-09-27T22:25:21.058Z,21.33
2017-09-27T22:27:55.585Z,21.25
2017-09-27T22:30:30.865Z,20.30
2017-09-27T22:33:05.611Z,21.25
2017-09-27T22:35:40.024Z,22.83
2017-09-27T22:38:14.439Z,21.95
2017-09-27T22:40:49.061Z,21.50
2017-09-27T22:43:23.724Z,24.25
2017-09-27T22:45:58.160Z,21.20
2017-09-27T22:48:32.597Z,21.23
2017-09-27T22:51:06.963Z,21.37
2017-09-27T22:53:41.480Z,20.60
2017-09-27T22:56:15.932Z,22.13
2017-09-27T22:58:51.222Z,23.65
2017-09-27T23:01:25.644Z,23.42
2017-09-27T23:04:00.251Z,23.40
2017-09-27T23:06:34.797Z,21.33
2017-09-27T23:09:10.134Z,23.50
2017-09-27T23:11:44.649Z,22.58
2017-09-27T23:14:19.171Z,22.08
2017-09-27T23:16:54.517Z,25.30
2017-09-27T23:19:29.835Z,21.37
2017-09-27T23:22:04.383Z,21.10
2017-09-27T23:24:38.769Z,21.50
2017-09-27T23:27:13.279Z,20.50
2017-09-27T23:29:47.854Z,22.30
2017-09-27T23:32:22.240Z,22.20
2017-09-27T23:34:56.658Z,22.75
2017-09-27T23:37:31.198Z,21.50
2017-09-27T23:40:06.511Z,21.50
2017-09-27T23:42:41.045Z,20.05
2017-09-27T23:45:16.226Z,21.92
2017-09-27T23:47:50.729Z,20.42
2017-09-27T23:50:25.426Z,21.08
2017-09-27T23:52:59.943Z,21.50
2017-09-27T23:55:34.331Z,20.65
2017-09-27T23:58:08.858Z,20.92
